Terminal Aerodrome Forecast
Issued by NWS

Home | Current Version | Previous Version | Graphics & Text | Print | Product List | Glossary On
Versions: 1 2 3 4 5 6 7 8 9 10 11 12 13 14 15 16 17 18 19 20 21 22 23 24 25 26 27 28 29 30 31 32 33 34 35 36 37 38 39
000
FTUS43 KGRB 151500 AAA
TAFRHI
TAF AMD
KRHI 151505Z 1515/1612 18004KT 1/4SM FG OVC002
     FM151800 16006KT 1/2SM FG OVC006
     FM152100 15007KT 1SM BR OVC008
      TEMPO 1521/1524 2SM -RA BR
     FM160000 09003KT 2SM -RA BR OVC009
     FM160500 35009KT 2SM -RASN BR OVC005
     FM160700 35009KT 2SM -SN BR OVC005=

USA.gov is the U.S. government's official web portal to all federal, state and local government web resources and services.